createdAt,value
2023-05-15T00:01:25.989Z,63.86
2023-05-15T00:03:55.338Z,63.90
2023-05-15T00:06:23.836Z,64.04
2023-05-15T00:08:52.049Z,64.45
2023-05-15T00:11:21.476Z,64.03
2023-05-15T00:13:51.145Z,64.49
2023-05-15T00:16:19.503Z,65.16
2023-05-15T00:18:47.807Z,65.25
2023-05-15T00:21:17.204Z,64.46
2023-05-15T00:23:47.604Z,64.08
2023-05-15T00:26:15.999Z,64.09
2023-05-15T00:28:44.288Z,64.30
2023-05-15T00:31:13.354Z,66.16
2023-05-15T00:33:41.618Z,65.90
2023-05-15T00:36:11.535Z,64.94
2023-05-15T00:38:40.680Z,64.22
2023-05-15T00:41:12.034Z,64.50
2023-05-15T00:43:41.924Z,65.46
2023-05-15T00:46:12.906Z,65.07
2023-05-15T00:48:42.609Z,64.31
2023-05-15T00:51:12.152Z,65.31
2023-05-15T00:53:41.759Z,65.55
2023-05-15T00:56:12.755Z,67.07
2023-05-15T00:58:42.699Z,67.21
2023-05-15T01:01:11.399Z,66.79
2023-05-15T01:03:40.097Z,67.71
2023-05-15T01:06:08.514Z,67.38
2023-05-15T01:08:36.833Z,67.66
2023-05-15T01:11:07.866Z,67.72
2023-05-15T01:13:36.036Z,68.37
2023-05-15T01:16:06.983Z,68.07
2023-05-15T01:18:36.035Z,69.76
2023-05-15T01:21:08.286Z,68.00
2023-05-15T01:24:04.630Z,68.24
2023-05-15T01:26:57.742Z,68.23
2023-05-15T01:29:47.424Z,68.76
2023-05-15T01:32:32.306Z,69.05
2023-05-15T01:35:06.742Z,70.65
2023-05-15T01:37:41.502Z,69.55
2023-05-15T01:40:12.208Z,70.47
2023-05-15T01:42:48.228Z,70.72
2023-05-15T01:45:18.664Z,70.99
2023-05-15T01:47:48.634Z,70.01
2023-05-15T01:50:19.242Z,69.05
2023-05-15T01:52:51.671Z,69.91
2023-05-15T01:55:23.204Z,70.08
2023-05-15T01:57:52.859Z,70.18
2023-05-15T02:00:21.898Z,70.73
2023-05-15T02:02:51.128Z,71.99
2023-05-15T02:05:21.055Z,71.77
2023-05-15T02:07:50.068Z,71.73
2023-05-15T02:10:19.744Z,70.38
2023-05-15T02:12:50.368Z,70.33
2023-05-15T02:15:21.115Z,70.78
2023-05-15T02:17:49.433Z,71.88
2023-05-15T02:20:17.807Z,71.54
2023-05-15T02:22:46.135Z,71.23
2023-05-15T02:25:16.573Z,71.13
2023-05-15T02:28:00.489Z,70.52
2023-05-15T02:30:38.537Z,70.84
2023-05-15T02:33:28.026Z,71.60
2023-05-15T02:36:01.957Z,69.32
2023-05-15T02:38:36.145Z,70.87
2023-05-15T02:41:06.386Z,71.75
2023-05-15T02:43:36.668Z,70.64
2023-05-15T02:46:07.635Z,70.74
2023-05-15T02:48:41.549Z,71.31
2023-05-15T02:51:11.041Z,71.45
2023-05-15T02:53:41.009Z,72.78
2023-05-15T02:56:10.101Z,74.11
2023-05-15T02:58:39.474Z,73.60
2023-05-15T03:01:07.898Z,72.56
2023-05-15T03:03:36.389Z,75.09
2023-05-15T03:06:04.779Z,72.52
2023-05-15T03:08:32.934Z,72.83
2023-05-15T03:11:01.285Z,71.97
2023-05-15T03:13:29.755Z,73.39
2023-05-15T03:15:58.121Z,72.48
2023-05-15T03:18:26.499Z,73.54
2023-05-15T03:20:55.166Z,72.70
2023-05-15T03:23:23.449Z,74.90
2023-05-15T03:25:51.778Z,73.87
2023-05-15T03:28:20.032Z,74.03
2023-05-15T03:30:48.248Z,74.84
2023-05-15T03:33:16.614Z,75.49
2023-05-15T03:35:44.949Z,74.87
2023-05-15T03:38:13.192Z,74.40
2023-05-15T03:40:41.437Z,74.00
2023-05-15T03:43:09.771Z,73.41
2023-05-15T03:45:39.274Z,74.57
2023-05-15T03:48:07.596Z,73.31
2023-05-15T03:50:36.625Z,73.23
2023-05-15T03:53:05.027Z,74.47
2023-05-15T03:55:33.554Z,73.39
2023-05-15T03:58:02.396Z,74.26
2023-05-15T04:00:30.638Z,73.75
2023-05-15T04:02:58.970Z,73.29
2023-05-15T04:05:27.862Z,74.40
2023-05-15T04:07:56.342Z,74.31
2023-05-15T04:10:24.882Z,74.36
2023-05-15T04:12:53.286Z,74.91
2023-05-15T04:15:24.018Z,74.42
2023-05-15T04:17:54.171Z,74.22
2023-05-15T04:20:24.569Z,73.59
2023-05-15T04:22:53.713Z,72.65
2023-05-15T04:25:22.186Z,72.72
2023-05-15T04:27:51.017Z,71.55
2023-05-15T04:30:19.491Z,70.64
2023-05-15T04:32:47.849Z,70.43
2023-05-15T04:35:16.479Z,69.26
2023-05-15T04:37:48.034Z,69.20
2023-05-15T04:40:16.828Z,68.77
2023-05-15T04:42:45.707Z,67.79
2023-05-15T04:45:15.061Z,66.62
2023-05-15T04:47:43.416Z,63.59
2023-05-15T04:50:11.922Z,63.23
2023-05-15T04:52:40.141Z,61.88
2023-05-15T04:55:09.466Z,63.06
2023-05-15T04:57:37.656Z,61.04
2023-05-15T05:00:12.082Z,61.71
2023-05-15T05:02:41.690Z,64.04
2023-05-15T05:05:10.595Z,62.73
2023-05-15T05:07:38.744Z,61.89
2023-05-15T05:10:08.017Z,60.22
2023-05-15T05:12:36.223Z,59.23
2023-05-15T05:15:05.054Z,55.88
2023-05-15T05:17:33.385Z,57.26
2023-05-15T05:20:01.717Z,51.91
2023-05-15T05:22:31.110Z,51.63
2023-05-15T05:24:59.333Z,51.48
2023-05-15T05:27:28.573Z,47.70
2023-05-15T05:29:56.853Z,45.60
2023-05-15T05:32:25.299Z,47.41
2023-05-15T05:34:53.598Z,44.96
2023-05-15T05:37:21.906Z,42.50
2023-05-15T05:39:50.059Z,41.69
2023-05-15T05:42:18.333Z,44.32
2023-05-15T05:44:46.523Z,41.89
2023-05-15T05:47:14.824Z,39.89
2023-05-15T05:49:43.628Z,37.95
2023-05-15T05:52:11.844Z,36.52
2023-05-15T05:54:40.000Z,37.88
2023-05-15T05:57:10.226Z,34.59
2023-05-15T05:59:38.477Z,35.42
2023-05-15T06:02:08.325Z,35.66
2023-05-15T06:04:36.985Z,34.17
2023-05-15T06:07:05.501Z,34.09
2023-05-15T06:09:33.728Z,35.47
2023-05-15T06:12:04.764Z,33.74
2023-05-15T06:14:33.058Z,33.15
2023-05-15T06:17:01.589Z,33.23
2023-05-15T06:19:30.500Z,33.30
2023-05-15T06:21:58.797Z,33.20
2023-05-15T06:24:27.149Z,31.80
2023-05-15T06:26:55.504Z,33.25
2023-05-15T06:29:23.669Z,31.29
2023-05-15T06:31:51.872Z,32.14
2023-05-15T06:34:20.089Z,31.46
2023-05-15T06:36:48.389Z,31.79
2023-05-15T06:39:16.601Z,31.82
2023-05-15T06:41:44.794Z,31.48
2023-05-15T06:44:13.673Z,31.31
2023-05-15T06:46:41.872Z,29.83
2023-05-15T06:49:10.054Z,30.18
2023-05-15T06:51:38.163Z,28.78
2023-05-15T06:54:06.600Z,30.21
2023-05-15T06:56:34.760Z,30.26
2023-05-15T06:59:02.991Z,29.74
2023-05-15T07:01:32.344Z,29.88
2023-05-15T07:04:00.691Z,29.98
2023-05-15T07:06:29.336Z,29.04
2023-05-15T07:08:58.743Z,29.26
2023-05-15T07:11:27.261Z,28.58
2023-05-15T07:13:55.644Z,30.16
2023-05-15T07:16:23.776Z,29.69
2023-05-15T07:18:52.242Z,30.51
2023-05-15T07:21:20.660Z,29.56
2023-05-15T07:23:48.925Z,30.09
2023-05-15T07:26:23.589Z,30.41
2023-05-15T07:28:59.784Z,29.57
2023-05-15T07:31:27.991Z,30.79
2023-05-15T07:33:56.330Z,30.27
2023-05-15T07:36:24.702Z,30.80
2023-05-15T07:38:52.922Z,30.42
2023-05-15T07:41:22.181Z,30.40
2023-05-15T07:43:50.517Z,31.45
2023-05-15T07:46:18.876Z,31.90
2023-05-15T07:48:47.253Z,30.23
2023-05-15T07:51:16.207Z,30.31
2023-05-15T07:53:44.418Z,31.13
2023-05-15T07:56:12.689Z,31.42
2023-05-15T07:58:41.092Z,30.97
2023-05-15T08:01:09.396Z,30.18
2023-05-15T08:03:37.694Z,30.14
2023-05-15T08:06:07.528Z,30.63
2023-05-15T08:08:35.857Z,29.69
2023-05-15T08:11:04.137Z,29.40
2023-05-15T08:13:32.292Z,29.29
2023-05-15T08:16:00.511Z,29.79
2023-05-15T08:18:28.813Z,30.28
2023-05-15T08:20:57.040Z,30.61
2023-05-15T08:23:25.274Z,29.86
2023-05-15T08:25:53.434Z,30.73
2023-05-15T08:28:21.707Z,30.45
2023-05-15T08:30:49.855Z,29.68
2023-05-15T08:33:18.086Z,30.54
2023-05-15T08:35:46.457Z,29.45
2023-05-15T08:38:14.675Z,30.02
2023-05-15T08:40:47.386Z,29.99
2023-05-15T08:43:21.224Z,31.16
2023-05-15T08:45:50.461Z,30.74
2023-05-15T08:48:21.795Z,30.45
2023-05-15T08:50:51.243Z,29.74
2023-05-15T08:53:20.354Z,31.16
2023-05-15T08:55:48.688Z,30.12
2023-05-15T08:58:17.559Z,30.47
2023-05-15T09:00:46.333Z,30.99
2023-05-15T09:03:16.835Z,29.99
2023-05-15T09:05:48.272Z,30.86
2023-05-15T09:08:18.236Z,30.77
2023-05-15T09:10:47.207Z,30.84
2023-05-15T09:13:15.810Z,30.19
2023-05-15T09:15:46.952Z,30.92
2023-05-15T09:18:16.427Z,30.86
2023-05-15T09:20:44.568Z,31.05
2023-05-15T09:23:27.436Z,30.52
2023-05-15T09:25:57.220Z,30.70
2023-05-15T09:28:33.885Z,30.60
2023-05-15T09:31:04.242Z,31.68
2023-05-15T09:33:35.408Z,31.82
2023-05-15T09:36:06.295Z,33.75
2023-05-15T09:38:43.838Z,33.24
2023-05-15T09:41:12.100Z,32.21
2023-05-15T09:43:41.358Z,31.84
2023-05-15T09:46:12.430Z,32.93
2023-05-15T09:48:40.925Z,33.95
2023-05-15T09:51:19.792Z,33.87
2023-05-15T09:53:55.489Z,33.61
2023-05-15T09:56:25.201Z,34.38
2023-05-15T09:58:54.998Z,34.26
2023-05-15T10:01:23.767Z,34.32
2023-05-15T10:04:01.681Z,34.48
2023-05-15T10:06:42.825Z,34.52
2023-05-15T10:09:14.215Z,35.37
2023-05-15T10:11:47.408Z,35.37
2023-05-15T10:14:18.840Z,35.56
2023-05-15T10:16:47.105Z,36.70
2023-05-15T10:19:15.596Z,35.51
2023-05-15T10:21:44.702Z,36.01
2023-05-15T10:24:14.001Z,35.94
2023-05-15T10:26:43.428Z,35.86
2023-05-15T10:29:17.591Z,35.61
2023-05-15T10:31:49.213Z,36.44
2023-05-15T10:34:18.966Z,36.46
2023-05-15T10:36:50.303Z,37.29
2023-05-15T10:39:20.331Z,38.01
2023-05-15T10:41:51.046Z,36.32
2023-05-15T10:44:20.767Z,37.52
2023-05-15T10:46:49.653Z,36.44
2023-05-15T10:49:18.031Z,36.98
2023-05-15T10:51:46.515Z,37.43
2023-05-15T10:54:15.587Z,37.71
2023-05-15T10:56:43.871Z,37.51
2023-05-15T10:59:12.541Z,37.24
2023-05-15T11:01:41.587Z,38.37
2023-05-15T11:04:17.969Z,36.97
2023-05-15T11:06:50.976Z,36.40
2023-05-15T11:09:22.415Z,37.00
2023-05-15T11:11:54.873Z,36.51
2023-05-15T11:14:27.413Z,37.03
2023-05-15T11:16:55.692Z,38.11
2023-05-15T11:19:33.257Z,37.67
2023-05-15T11:22:01.519Z,36.67
2023-05-15T11:24:48.098Z,37.53
2023-05-15T11:27:24.227Z,38.09
2023-05-15T11:30:11.089Z,37.67
2023-05-15T11:33:08.642Z,37.21
2023-05-15T11:35:43.328Z,39.77
2023-05-15T11:38:15.432Z,37.66
2023-05-15T11:40:44.954Z,37.89
2023-05-15T11:43:22.585Z,37.12
2023-05-15T11:45:59.083Z,36.55
2023-05-15T11:48:35.434Z,36.49
2023-05-15T11:51:05.698Z,37.42
2023-05-15T11:53:33.939Z,37.49
2023-05-15T11:56:02.300Z,36.63
2023-05-15T11:58:30.512Z,36.39
2023-05-15T12:00:58.802Z,37.18
2023-05-15T12:03:36.633Z,36.73
2023-05-15T12:06:05.246Z,36.63
2023-05-15T12:08:42.071Z,36.97
2023-05-15T12:11:11.231Z,36.91
2023-05-15T12:13:39.664Z,37.29
2023-05-15T12:16:08.128Z,37.80
2023-05-15T12:18:36.475Z,37.66
2023-05-15T12:21:06.088Z,37.32
2023-05-15T12:23:34.234Z,37.29
2023-05-15T12:26:03.870Z,37.41
2023-05-15T12:28:35.761Z,38.25
2023-05-15T12:31:04.361Z,37.46
2023-05-15T12:33:32.784Z,38.87
2023-05-15T12:36:01.859Z,38.36
2023-05-15T12:38:30.855Z,38.11
2023-05-15T12:40:59.366Z,38.36
2023-05-15T12:43:27.978Z,38.27
2023-05-15T12:45:57.506Z,38.67
2023-05-15T12:48:32.826Z,39.14
2023-05-15T12:51:08.056Z,38.90
2023-05-15T12:53:39.831Z,38.72
2023-05-15T12:56:16.250Z,38.80
2023-05-15T12:58:44.588Z,38.87
2023-05-15T13:01:13.002Z,38.54
2023-05-15T13:03:44.556Z,38.94
2023-05-15T13:06:13.069Z,40.58
2023-05-15T13:08:42.214Z,40.04
2023-05-15T13:11:14.555Z,39.84
2023-05-15T13:13:49.525Z,40.00
2023-05-15T13:16:19.501Z,40.77
2023-05-15T13:18:48.173Z,39.79
2023-05-15T13:21:16.638Z,40.28
2023-05-15T13:23:44.888Z,41.22
2023-05-15T13:26:13.161Z,40.58
2023-05-15T13:28:41.621Z,40.47
2023-05-15T13:31:10.125Z,40.79
2023-05-15T13:33:38.490Z,41.21
2023-05-15T13:36:07.160Z,41.72
2023-05-15T13:38:35.413Z,41.81
2023-05-15T13:41:06.816Z,42.58
2023-05-15T13:43:35.016Z,43.00
2023-05-15T13:46:03.211Z,42.36
2023-05-15T13:48:32.167Z,42.65
2023-05-15T13:51:00.946Z,42.89
2023-05-15T13:53:29.176Z,43.58
2023-05-15T13:55:57.647Z,43.69
2023-05-15T13:58:26.900Z,44.85
2023-05-15T14:00:55.272Z,44.35
2023-05-15T14:03:23.723Z,44.50
2023-05-15T14:05:52.910Z,45.23
2023-05-15T14:08:21.233Z,44.98
2023-05-15T14:10:49.554Z,46.05
2023-05-15T14:13:18.929Z,45.58
2023-05-15T14:15:47.089Z,45.42
2023-05-15T14:18:15.378Z,45.69
2023-05-15T14:20:43.649Z,46.09
2023-05-15T14:23:11.958Z,46.80
2023-05-15T14:25:41.372Z,47.45
2023-05-15T14:28:09.692Z,46.85
2023-05-15T14:30:37.844Z,47.01
2023-05-15T14:33:06.009Z,47.47
2023-05-15T14:35:34.273Z,47.42
2023-05-15T14:38:03.133Z,48.23
2023-05-15T14:40:31.335Z,47.88
2023-05-15T14:42:59.543Z,47.96
2023-05-15T14:45:27.833Z,47.63
2023-05-15T14:47:56.050Z,48.34
2023-05-15T14:50:24.615Z,47.79
2023-05-15T14:52:53.103Z,47.50
2023-05-15T14:55:22.245Z,47.94
2023-05-15T14:57:50.614Z,47.87
2023-05-15T15:00:19.014Z,48.14
2023-05-15T15:02:47.272Z,48.25
2023-05-15T15:05:16.037Z,48.65
2023-05-15T15:08:03.843Z,48.96
2023-05-15T15:10:36.934Z,49.23
2023-05-15T15:13:06.351Z,49.41
2023-05-15T15:15:35.055Z,49.12
2023-05-15T15:18:03.571Z,49.65
2023-05-15T15:20:31.768Z,49.94
2023-05-15T15:23:00.354Z,50.65
2023-05-15T15:25:30.731Z,50.23
2023-05-15T15:28:00.477Z,50.23
2023-05-15T15:30:28.869Z,50.06
2023-05-15T15:32:58.036Z,50.85
2023-05-15T15:35:26.410Z,51.77
2023-05-15T15:37:54.753Z,50.89
2023-05-15T15:40:24.176Z,50.85
2023-05-15T15:42:54.346Z,51.09
2023-05-15T15:45:23.220Z,51.47
2023-05-15T15:47:51.431Z,51.49
2023-05-15T15:50:19.784Z,51.25
2023-05-15T15:52:47.968Z,51.19
2023-05-15T15:55:16.171Z,51.69
2023-05-15T15:57:45.072Z,51.27
2023-05-15T16:00:13.767Z,51.51
2023-05-15T16:02:42.075Z,51.71
2023-05-15T16:05:10.986Z,51.75
2023-05-15T16:07:39.299Z,52.29
2023-05-15T16:10:12.863Z,52.40
2023-05-15T16:12:42.710Z,52.71
2023-05-15T16:17:44.395Z,54.07
2023-05-15T16:20:12.696Z,53.80
2023-05-15T16:22:41.982Z,54.17
2023-05-15T16:25:10.428Z,54.90
2023-05-15T16:27:38.630Z,54.76
2023-05-15T16:30:07.564Z,54.99
2023-05-15T16:32:36.324Z,55.55
2023-05-15T16:35:05.171Z,55.71
2023-05-15T16:37:33.501Z,56.39
2023-05-15T16:40:01.831Z,57.32
2023-05-15T16:42:30.072Z,56.82
2023-05-15T16:44:58.435Z,57.34
2023-05-15T16:47:26.670Z,57.06
2023-05-15T16:49:55.262Z,57.28
2023-05-15T16:52:23.535Z,56.82
2023-05-15T16:54:51.637Z,57.31
2023-05-15T16:57:20.458Z,57.85
2023-05-15T16:59:48.742Z,58.17
2023-05-15T17:02:17.034Z,58.62
2023-05-15T17:04:45.278Z,58.17
2023-05-15T17:07:13.471Z,59.30
2023-05-15T17:09:43.286Z,58.81
2023-05-15T17:12:11.943Z,60.27
2023-05-15T17:14:40.316Z,60.70
2023-05-15T17:17:08.536Z,60.42
2023-05-15T17:19:36.750Z,59.95
2023-05-15T17:22:05.300Z,61.36
2023-05-15T17:24:49.489Z,60.79
2023-05-15T17:27:20.574Z,61.47
2023-05-15T17:29:48.956Z,62.03
2023-05-15T17:32:18.158Z,62.52
2023-05-15T17:34:46.635Z,62.01
2023-05-15T17:37:15.076Z,63.21
2023-05-15T17:39:43.835Z,63.49
2023-05-15T17:42:12.104Z,63.91
2023-05-15T17:44:40.497Z,63.32
2023-05-15T17:47:10.402Z,63.99
2023-05-15T17:49:39.743Z,64.08
2023-05-15T17:52:08.832Z,64.03
2023-05-15T17:54:37.083Z,63.39
2023-05-15T17:57:05.831Z,64.84
2023-05-15T17:59:34.315Z,64.21
2023-05-15T18:02:02.833Z,63.39
2023-05-15T18:04:31.266Z,64.64
2023-05-15T18:06:59.542Z,65.41
2023-05-15T18:09:27.951Z,63.55
2023-05-15T18:11:56.266Z,64.75
2023-05-15T18:14:24.462Z,63.46
2023-05-15T18:16:52.769Z,63.77
2023-05-15T18:19:21.369Z,64.82
2023-05-15T18:21:49.804Z,64.30
2023-05-15T18:24:18.017Z,64.35
2023-05-15T18:26:46.294Z,64.97
2023-05-15T18:29:14.598Z,66.30
2023-05-15T18:31:42.820Z,66.99
2023-05-15T18:34:11.092Z,66.39
2023-05-15T18:36:39.296Z,65.44
2023-05-15T18:39:07.651Z,67.13
2023-05-15T18:41:35.921Z,67.09
2023-05-15T18:44:04.404Z,66.73
2023-05-15T18:46:34.206Z,66.77
2023-05-15T18:49:02.590Z,65.96
2023-05-15T18:51:31.513Z,65.96
2023-05-15T18:53:59.760Z,65.82
2023-05-15T18:56:28.626Z,65.92
2023-05-15T18:58:56.948Z,66.25
2023-05-15T19:01:25.323Z,68.35
2023-05-15T19:03:53.607Z,67.91
2023-05-15T19:06:21.855Z,66.95
2023-05-15T19:08:50.078Z,67.59
2023-05-15T19:11:18.322Z,67.19
2023-05-15T19:13:46.859Z,68.91
2023-05-15T19:16:15.176Z,68.96
2023-05-15T19:18:43.540Z,70.17
2023-05-15T19:21:11.997Z,71.86
2023-05-15T19:23:40.196Z,70.56
2023-05-15T19:26:10.498Z,69.28
2023-05-15T19:28:38.965Z,69.45
2023-05-15T19:31:14.051Z,71.28
2023-05-15T19:33:49.131Z,69.43
2023-05-15T19:36:18.858Z,68.73
2023-05-15T19:38:47.107Z,69.39
2023-05-15T19:41:15.501Z,70.39
2023-05-15T19:43:46.555Z,69.46
2023-05-15T19:46:14.828Z,70.69
2023-05-15T19:48:43.690Z,70.86
2023-05-15T19:51:11.986Z,70.84
2023-05-15T19:53:41.442Z,71.33
2023-05-15T19:56:09.724Z,70.65
2023-05-15T19:58:37.929Z,70.02
2023-05-15T20:01:06.181Z,70.23
2023-05-15T20:03:34.829Z,70.74
2023-05-15T20:06:03.665Z,71.14
2023-05-15T20:08:31.866Z,70.13
2023-05-15T20:11:01.343Z,70.30
2023-05-15T20:13:29.768Z,72.00
2023-05-15T20:15:59.075Z,74.37
2023-05-15T20:18:32.218Z,73.83
2023-05-15T20:21:02.833Z,73.19
2023-05-15T20:23:31.123Z,72.81
2023-05-15T20:25:59.356Z,72.81
2023-05-15T20:28:29.109Z,73.21
2023-05-15T20:30:57.875Z,72.56
2023-05-15T20:33:26.230Z,73.52
2023-05-15T20:35:54.861Z,72.60
2023-05-15T20:38:25.795Z,72.94
2023-05-15T20:40:54.596Z,72.19
2023-05-15T20:43:23.437Z,71.73
2023-05-15T20:45:52.028Z,72.12
2023-05-15T20:48:20.400Z,73.57
2023-05-15T20:50:50.239Z,73.52
2023-05-15T20:53:18.482Z,73.69
2023-05-15T20:55:46.998Z,72.65
2023-05-15T20:58:15.240Z,72.86
2023-05-15T21:00:43.487Z,73.58
2023-05-15T21:03:11.968Z,74.81
2023-05-15T21:05:40.600Z,74.51
2023-05-15T21:08:08.908Z,73.51
2023-05-15T21:10:37.415Z,74.41
2023-05-15T21:13:05.618Z,73.91
2023-05-15T21:15:33.798Z,73.65
2023-05-15T21:18:02.303Z,74.17
2023-05-15T21:20:32.831Z,74.76
2023-05-15T21:23:03.421Z,74.64
2023-05-15T21:25:33.376Z,74.33
2023-05-15T21:28:03.995Z,74.15
2023-05-15T21:30:32.270Z,76.12
2023-05-15T21:33:00.864Z,75.75
2023-05-15T21:35:31.086Z,76.01
2023-05-15T21:37:59.889Z,74.40
2023-05-15T21:40:28.473Z,74.67
2023-05-15T21:42:56.977Z,75.85
2023-05-15T21:45:25.217Z,76.22
2023-05-15T21:47:53.589Z,76.83
2023-05-15T21:50:21.873Z,76.66
2023-05-15T21:52:51.715Z,76.41
2023-05-15T21:55:20.033Z,77.33
2023-05-15T21:57:48.287Z,78.34
2023-05-15T22:00:17.206Z,76.62
2023-05-15T22:02:45.495Z,76.02
2023-05-15T22:05:14.094Z,77.50
2023-05-15T22:07:42.356Z,80.60
2023-05-15T22:10:16.449Z,78.81
2023-05-15T22:12:45.070Z,78.82
2023-05-15T22:15:14.708Z,78.60
2023-05-15T22:17:42.953Z,79.33
2023-05-15T22:20:13.262Z,79.31
2023-05-15T22:22:42.551Z,78.26
2023-05-15T22:25:10.938Z,77.78
2023-05-15T22:27:39.287Z,78.22
2023-05-15T22:30:08.692Z,79.36
2023-05-15T22:32:37.016Z,79.27
2023-05-15T22:35:05.742Z,79.23
2023-05-15T22:37:34.812Z,79.54
2023-05-15T22:40:04.254Z,79.53
2023-05-15T22:42:32.692Z,79.99
2023-05-15T22:45:01.204Z,79.50
2023-05-15T22:47:29.472Z,78.82
2023-05-15T22:49:57.734Z,80.49
2023-05-15T22:52:26.126Z,80.61
2023-05-15T22:55:13.273Z,81.75
2023-05-15T22:57:41.667Z,81.39
2023-05-15T23:00:10.551Z,81.63
2023-05-15T23:02:39.395Z,80.92
2023-05-15T23:05:08.577Z,82.18
2023-05-15T23:07:49.091Z,81.91
2023-05-15T23:10:17.438Z,82.21
2023-05-15T23:12:46.463Z,81.98
2023-05-15T23:15:14.851Z,81.01
2023-05-15T23:17:43.425Z,81.98
2023-05-15T23:20:13.019Z,81.45
2023-05-15T23:22:41.281Z,81.07
2023-05-15T23:25:09.885Z,80.87
2023-05-15T23:27:38.232Z,81.12
2023-05-15T23:30:07.459Z,81.53
2023-05-15T23:32:36.018Z,82.09
2023-05-15T23:35:04.492Z,82.69
2023-05-15T23:37:32.728Z,82.40
2023-05-15T23:40:01.020Z,81.71
2023-05-15T23:42:30.195Z,80.60
2023-05-15T23:44:58.470Z,81.70
2023-05-15T23:47:26.704Z,80.74
2023-05-15T23:49:55.081Z,81.24
2023-05-15T23:52:23.383Z,82.03
2023-05-15T23:54:51.528Z,82.24
2023-05-15T23:57:19.812Z,81.68
2023-05-15T23:59:48.037Z,83.54
